createdAt,value
2022-08-05T00:01:27.816Z,6.57
2022-08-05T00:06:36.041Z,6.03
2022-08-05T00:11:49.404Z,6.75
2022-08-05T00:16:58.229Z,8.02
2022-08-05T00:22:02.498Z,8.38
2022-08-05T00:27:10.579Z,7.90
2022-08-05T00:32:29.065Z,8.70
2022-08-05T00:37:50.695Z,6.80
2022-08-05T00:42:54.163Z,7.82
2022-08-05T00:48:05.792Z,9.50
2022-08-05T00:53:09.852Z,9.35
2022-08-05T00:58:29.760Z,8.50
2022-08-05T01:03:34.146Z,8.60
2022-08-05T01:08:43.234Z,8.27
2022-08-05T01:14:00.057Z,7.88
2022-08-05T01:19:16.190Z,4.88
2022-08-05T01:24:30.148Z,4.65
2022-08-05T01:29:43.282Z,3.85
2022-08-05T01:34:57.398Z,3.38
2022-08-05T01:40:05.860Z,3.42
2022-08-05T01:45:09.082Z,3.92
2022-08-05T01:50:50.903Z,4.07
2022-08-05T01:55:56.314Z,4.55
2022-08-05T02:01:08.320Z,4.40
2022-08-05T02:06:33.450Z,6.03
2022-08-05T02:12:03.494Z,4.75
2022-08-05T02:17:16.982Z,5.35
2022-08-05T02:22:47.248Z,6.30
2022-08-05T02:27:59.443Z,5.00
2022-08-05T02:33:06.743Z,5.70
2022-08-05T02:38:09.492Z,8.40
2022-08-05T02:43:14.278Z,5.60
2022-08-05T02:48:17.603Z,5.40
2022-08-05T02:53:24.286Z,6.60
2022-08-05T02:58:30.956Z,6.95
2022-08-05T03:03:33.935Z,7.15
2022-08-05T03:08:56.481Z,7.32
2022-08-05T03:14:04.186Z,6.57
2022-08-05T03:19:17.342Z,7.57
2022-08-05T03:24:30.000Z,8.43
2022-08-05T03:29:45.325Z,7.40
2022-08-05T03:34:56.809Z,8.13
2022-08-05T03:40:03.943Z,9.52
2022-08-05T03:45:21.936Z,8.93
2022-08-05T03:50:29.410Z,10.35
2022-08-05T03:56:06.191Z,9.13
2022-08-05T04:01:05.539Z,9.68
2022-08-05T04:06:12.564Z,10.38
2022-08-05T04:11:16.682Z,10.13
2022-08-05T04:16:25.234Z,9.27
2022-08-05T04:22:09.546Z,9.60
2022-08-05T04:27:01.029Z,8.95
2022-08-05T04:32:03.532Z,10.85
2022-08-05T04:37:14.105Z,11.23
2022-08-05T04:42:15.845Z,10.15
2022-08-05T04:47:18.745Z,9.10
2022-08-05T04:52:22.157Z,9.88
2022-08-05T04:57:28.598Z,9.63
2022-08-05T05:02:36.378Z,10.23
2022-08-05T05:07:56.229Z,11.10
2022-08-05T05:13:04.873Z,8.65
2022-08-05T05:18:09.927Z,8.52
2022-08-05T05:23:19.993Z,7.30
2022-08-05T05:28:24.925Z,7.50
2022-08-05T05:33:28.879Z,8.10
2022-08-05T05:38:46.244Z,8.25
2022-08-05T05:43:58.547Z,9.13
2022-08-05T05:49:06.432Z,9.45
2022-08-05T05:54:15.282Z,8.65
2022-08-05T05:59:22.007Z,9.40
2022-08-05T06:04:27.102Z,7.65
2022-08-05T06:09:52.729Z,8.20
2022-08-05T06:14:51.925Z,6.28
2022-08-05T06:19:59.738Z,8.23
2022-08-05T06:25:25.223Z,6.50
2022-08-05T06:30:32.620Z,7.28
2022-08-05T06:36:08.187Z,6.38
2022-08-05T06:41:02.134Z,4.90
2022-08-05T06:46:08.324Z,4.60
2022-08-05T06:51:12.005Z,4.03
2022-08-05T06:56:27.057Z,2.97
2022-08-05T07:01:32.215Z,3.03
2022-08-05T07:06:36.621Z,2.10
2022-08-05T07:11:39.787Z,3.50
2022-08-05T07:17:56.567Z,2.40
2022-08-05T07:22:15.874Z,2.13
2022-08-05T07:27:19.783Z,2.22
2022-08-05T07:32:26.303Z,2.05
2022-08-05T07:37:29.206Z,2.00
2022-08-05T07:42:41.716Z,2.83
2022-08-05T07:47:49.425Z,2.50
2022-08-05T07:52:57.494Z,2.60
2022-08-05T07:58:03.106Z,2.22
2022-08-05T08:03:14.638Z,2.10
2022-08-05T08:08:20.101Z,1.92
2022-08-05T08:13:29.016Z,2.05
2022-08-05T08:18:35.928Z,1.73
2022-08-05T08:24:02.637Z,1.60
2022-08-05T08:29:29.504Z,1.20
2022-08-05T08:34:30.589Z,1.40
2022-08-05T08:39:49.410Z,1.33
2022-08-05T08:45:18.599Z,1.48
2022-08-05T08:50:33.108Z,1.52
2022-08-05T08:56:04.750Z,1.58
2022-08-05T09:01:15.436Z,1.52
2022-08-05T09:06:21.086Z,1.50
2022-08-05T09:11:53.167Z,1.10
2022-08-05T09:16:53.546Z,1.27
2022-08-05T09:22:23.172Z,1.80
2022-08-05T09:28:05.940Z,1.42
2022-08-05T09:33:01.820Z,0.80
2022-08-05T09:38:12.871Z,1.15
2022-08-05T09:43:41.300Z,0.95
2022-08-05T09:49:06.479Z,0.95
2022-08-05T09:54:15.115Z,1.00
2022-08-05T09:59:28.218Z,1.08
2022-08-05T10:04:38.336Z,0.93
2022-08-05T10:10:13.972Z,2.47
2022-08-05T10:15:22.149Z,3.38
2022-08-05T10:20:24.126Z,1.50
2022-08-05T10:25:28.206Z,0.93
2022-08-05T10:32:02.978Z,0.82
2022-08-05T10:35:59.754Z,0.98
2022-08-05T10:41:45.528Z,0.82
2022-08-05T10:46:56.416Z,0.88
2022-08-05T10:52:05.007Z,0.73
2022-08-05T10:57:14.753Z,0.75
2022-08-05T11:02:34.764Z,0.80
2022-08-05T11:09:45.151Z,0.90
2022-08-05T11:15:20.649Z,0.88
2022-08-05T11:20:46.040Z,0.98
2022-08-05T11:26:28.671Z,0.82
2022-08-05T11:31:53.931Z,0.88
2022-08-05T11:36:59.165Z,1.05
2022-08-05T11:42:04.676Z,1.13
2022-08-05T11:47:11.148Z,1.08
2022-08-05T11:52:29.297Z,0.90
2022-08-05T11:58:08.660Z,0.90
2022-08-05T12:03:28.366Z,0.85
2022-08-05T12:08:51.110Z,1.02
2022-08-05T12:14:04.376Z,1.00
2022-08-05T12:19:08.358Z,0.82
2022-08-05T12:24:17.588Z,0.70
2022-08-05T12:29:24.928Z,0.95
2022-08-05T12:34:29.158Z,0.80
2022-08-05T12:39:37.210Z,0.70
2022-08-05T12:44:43.129Z,1.10
2022-08-05T12:50:04.530Z,0.98
2022-08-05T12:55:25.866Z,0.90
2022-08-05T13:02:00.490Z,0.60
2022-08-05T13:05:56.759Z,0.60
2022-08-05T13:11:04.069Z,0.52
2022-08-05T13:16:12.600Z,0.52
2022-08-05T13:21:19.742Z,0.70
2022-08-05T13:26:30.259Z,0.40
2022-08-05T13:31:34.093Z,0.60
2022-08-05T13:36:56.311Z,0.50
2022-08-05T13:41:58.151Z,0.35
2022-08-05T13:47:08.983Z,0.30
2022-08-05T13:52:29.153Z,0.40
2022-08-05T13:57:51.355Z,0.40
2022-08-05T14:02:57.686Z,0.28
2022-08-05T14:08:08.718Z,0.63
2022-08-05T14:13:25.530Z,0.38
2022-08-05T14:18:38.619Z,0.40
2022-08-05T14:23:40.636Z,0.30
2022-08-05T14:28:52.220Z,0.40
2022-08-05T14:33:59.318Z,0.40
2022-08-05T14:39:02.787Z,0.30
2022-08-05T14:44:09.975Z,0.50
2022-08-05T14:49:21.952Z,0.35
2022-08-05T14:54:28.241Z,0.30
2022-08-05T14:59:35.578Z,0.40
2022-08-05T15:04:40.853Z,0.25
2022-08-05T15:09:51.682Z,0.20
2022-08-05T15:14:59.036Z,0.25
2022-08-05T15:20:03.606Z,0.30
2022-08-05T15:25:13.666Z,0.30
2022-08-05T15:30:18.146Z,0.43
2022-08-05T15:35:24.935Z,0.30
2022-08-05T15:40:59.542Z,0.47
2022-08-05T15:46:00.338Z,0.60
2022-08-05T15:51:05.854Z,0.20
2022-08-05T15:56:11.551Z,0.45
2022-08-05T16:01:17.941Z,0.30
2022-08-05T16:06:23.019Z,0.20
2022-08-05T16:11:42.984Z,0.32
2022-08-05T16:16:47.745Z,0.43
2022-08-05T16:22:00.396Z,0.45
2022-08-05T16:27:05.263Z,0.38
2022-08-05T16:32:11.770Z,0.35
2022-08-05T16:38:01.902Z,0.30
2022-08-05T16:42:43.332Z,0.30
2022-08-05T16:47:54.872Z,0.38
2022-08-05T16:53:01.689Z,0.20
2022-08-05T16:58:14.637Z,0.28
2022-08-05T17:03:24.798Z,0.47
2022-08-05T17:08:35.973Z,0.45
2022-08-05T17:13:47.378Z,0.45
2022-08-05T17:18:50.504Z,0.50
2022-08-05T17:24:04.477Z,0.40
2022-08-05T17:29:22.430Z,0.38
2022-08-05T17:34:32.198Z,0.40
2022-08-05T17:39:39.224Z,0.47
2022-08-05T17:44:51.365Z,0.60
2022-08-05T17:50:03.843Z,0.63
2022-08-05T17:55:15.641Z,0.90
2022-08-05T18:00:19.839Z,0.60
2022-08-05T18:05:24.129Z,0.70
2022-08-05T18:10:33.719Z,0.65
2022-08-05T18:15:38.641Z,0.60
2022-08-05T18:20:41.622Z,0.85
2022-08-05T18:25:49.250Z,0.55
2022-08-05T18:30:59.264Z,0.40
2022-08-05T18:36:11.889Z,0.30
2022-08-05T18:42:00.312Z,0.50
2022-08-05T18:46:43.201Z,0.88
2022-08-05T18:52:09.141Z,0.50
2022-08-05T18:57:17.271Z,0.70
2022-08-05T19:02:28.128Z,0.90
2022-08-05T19:07:46.738Z,0.60
2022-08-05T19:12:49.078Z,0.70
2022-08-05T19:18:10.436Z,0.73
2022-08-05T19:24:04.397Z,0.63
2022-08-05T19:28:42.311Z,0.70
2022-08-05T19:33:48.609Z,0.80
2022-08-05T19:39:02.169Z,0.57
2022-08-05T19:44:13.671Z,0.65
2022-08-05T19:49:16.824Z,0.55
2022-08-05T19:54:26.800Z,0.60
2022-08-05T20:00:02.072Z,0.50
2022-08-05T20:05:00.952Z,0.60
2022-08-05T20:10:13.827Z,0.70
2022-08-05T20:15:48.972Z,0.50
2022-08-05T20:20:49.297Z,0.57
2022-08-05T20:25:52.218Z,0.60
2022-08-05T20:30:55.365Z,1.00
2022-08-05T20:35:59.424Z,0.95
2022-08-05T20:41:04.609Z,0.73
2022-08-05T20:46:18.593Z,0.55
2022-08-05T20:51:29.879Z,0.50
2022-08-05T20:56:42.210Z,0.63
2022-08-05T21:01:47.477Z,0.60
2022-08-05T21:06:55.909Z,0.90
2022-08-05T21:12:10.587Z,0.85
2022-08-05T21:17:19.131Z,0.80
2022-08-05T21:22:28.645Z,0.70
2022-08-05T21:27:38.566Z,0.77
2022-08-05T21:32:40.757Z,0.70
2022-08-05T21:37:53.027Z,0.52
2022-08-05T21:42:59.021Z,0.70
2022-08-05T21:48:01.101Z,0.60
2022-08-05T21:53:08.455Z,0.98
2022-08-05T21:58:19.581Z,0.65
2022-08-05T22:03:52.752Z,0.70
2022-08-05T22:08:45.475Z,0.70
2022-08-05T22:14:33.884Z,0.68
2022-08-05T22:20:02.015Z,0.88
2022-08-05T22:25:01.287Z,1.20
2022-08-05T22:30:04.931Z,0.93
2022-08-05T22:35:11.641Z,0.80
2022-08-05T22:40:16.727Z,0.82
2022-08-05T22:45:22.414Z,0.70
2022-08-05T22:50:27.835Z,0.80
2022-08-05T22:55:56.268Z,1.17
2022-08-05T23:00:57.662Z,0.80
2022-08-05T23:06:04.270Z,0.90
2022-08-05T23:11:11.615Z,0.90
2022-08-05T23:16:33.277Z,1.10
2022-08-05T23:21:42.376Z,0.75
2022-08-05T23:26:44.460Z,1.00
2022-08-05T23:31:52.598Z,1.02
2022-08-05T23:36:54.948Z,0.82
2022-08-05T23:41:56.708Z,0.85
2022-08-05T23:47:02.458Z,0.90
2022-08-05T23:52:36.180Z,0.63
2022-08-05T23:57:56.780Z,0.80
